Scroll down
FLIGHT INFORMATION
American Airlines

AAL1540

At Arrival Gate

KSEA
 KORD
DATE: 2020-10-17
GATE: N16
GATE DEPARTURE: 14:51
TAKEOFF: 15:00
DATE: 2020-10-17
GATE: F3
LANDING: 18:05
GATE ARRIVAL: 18:11
FLIGHT DATA
Crew: 
Speed: 
470 kts
Altitude: 
35,018 ft
Stage Length: 
1,491.1 nm
Block Time: 
3.3 hrs
Flight Time: 
3.1 hrs
Fuel Used: 
19,465 lb
Cleared Route: KSEA SEA ZADON ZELAK ZIRAN MLP GTF MLS SWTHN JELRO KEKPE UFFDA HSTIN ZZIPR WELCM TEEOO MITEE BHAWK STNLE CUUPP CHMPN CLSBY FYTTE MOTRR COGSS MADII SOOLU JORJO MONKZ TONIE HAZIL RW28C
TRACK DATA
50,000 ft 1,000 kts
AIRCRAFT INFO AND CUMULATIVE STATS
Aircraft Type: 
B738BW
Registration: 
SELCAL: 
CKBF
MSN/LN: 
33488 / 4530
Operator: 
Total Flights: 
23
Total Block Time: 
52.8 hrs
Total Flight Time: 
47 hrs
Total Fuel Time: 
294,960 lb
DATALINK LOG | Newest first | Current as of: 2020-11-27 00:25:29
LABEL SEQUENCE CONTENT Dn/Up
QD515318:11 10▼ Dn
QC444718:05▼ Dn
2U4857KORD 172051Z 20017G39KT 10SM SCT120 BKN180 OVC250 18/M03 A2992 RMK AO2 PK WND 20039/2042 SLP134 T01781033 56028 $▲ Up
2S2731KORD▼ Dn
5Z403217 OCT 20 17:35:30z / FLT DECK GOOD / ACF POS GOOD / GRND SERVICES GOOD / MAINT GOOD▼ Dn
GA4041GATE F3▲ Up
GR4030KORD 18:07 MAAS 00 YP/UM 01/02 WCHR/S/C 03/04/05 HI-VAL NO DIPL/VIP YES▼ Dn
2U2651KORD 171651Z 19011G18KT 10SM -RA SCT040 BKN055 OVC075 12/M02 A3009 RMK AO2 RAB16E31B51 SLP194 P0000 T01221017 $▲ Up
2S3021KORD▼ Dn
QB045915:00▼ Dn
QA555214:51 29.5▼ Dn
A34856CLEARED TO KORD VIA SEA7 sea ZADON ZELAK ZIRAN MLP J36 GTF MLS SWTHN Q156 JELRO Q156 ZZIPR FYTTE5. SQUAWK 2336.▲ Up
Q04745[LINK ACK]▲ Up
Q04745[LINK TEST]▼ Dn
5U2653KORD 171829Z 19024G38KT 10SM BKN120 08/M04 A3015▲ Up
2U2650KSEA 171412Z 18006KT 4SM BR FEW005 OVC013 11/10 A3016 RMK AO2 T01060100▲ Up
5S3030KORD▼ Dn
2S3030KSEA▼ Dn
A33029CLEARED TO KORD VIA SEA7 sea ZADON ZELAK ZIRAN MLP J36 GTF MLS SWTHN Q156 JELRO Q156 ZZIPR FYTTE5. SQUAWK 3575.▲ Up
Q02928[LINK ACK]▲ Up
Q02927[LINK TEST]▼ Dn


AIRCRAFT HISTORY
FLIGHT DATE FLIGHT NO. ORIGIN DESTINATION CLEARED ROUTE BLOCK TIME FLIGHT TIME FUEL USED PILOT
2020-11-26AAL2408KTPA KORD KTPA ENDED LACEN BRUTS JAMIZ JOHNN ATL KAILL GLAZR JEDER HELUB VOSTK ROYYZ HEVAN BONNT NYLEN VEECK BOONE HANNI CLUSO KAYTO PINKK MONKZ JORJO POSSM HAZIL RW28C2.6 hrs2.3 hrs13,817 lbGeorge M
2020-11-25AAL2998KBOS KTPA KBOS TJAYY BRRRO JAITE HEWMO KENWI PATSS NELIE BIZEX DUEYS JERSY SBJ BIGGY COPES MXE STOEN SACRI MURPH TOOBN HAMMZ GVE DRAIK BROSK GSO SLOJO ILBEE FISHO SHRIL TEEEM TEUFL GEEYE JAYJA EDISN OLENE MARVI KOKOH DADES LZARD JKBAL BUCCS RW19L3.3 hrs3.1 hrs17,644 lbGeorge M
2020-11-25AAL832KORD KBOS KORD EBAKE WISMO POSTS PADDE SVM DKK PONCT STOLI MNSTA SEETS DUBLE BASEZ JFUND AUTUM WINTA HRRIS ISLAY LWLND WYANE RW22L1.9 hrs1.7 hrs10,454 lbGeorge M
2020-11-24AAL4886KMSP KORD KMSP FGT FOBUG DOKTR CORDY RST ZZIPR WELCM TEEOO MITEE BHAWK STNLE CUUPP CHMPN CLSBY FYTTE MOTRR COGSS MADII SOOLU KURKK VULCN HIMGO DEVON RW09R1.2 hrs0.9 hrs6,161 lbGeorge M
2020-11-22AAL331KORD KMSP KORD PMPKN NEATO DLLAN RONIC KAMMA BEERI ROBBY KBULL ZZING HENDR CMAAC KKILR HUGGI KRISP STUWE GEEQU AABEZ RW30L1.2 hrs0.9 hrs6,388 lbGeorge M
2020-11-21AAL575KPHX KORD KPHX JINOL OSGUE ZIDOG OXYGN ZILUB FORPE LALUZ SJN ABQ FTI KENTO DRAWL GCK SLN AGENT KIDER IRK LOAMY KEOKK DRAMS RYELY BFORD BYLAW BENKY NEWRK AHSTN PETAH JORJO MONKZ TONIE RRUDA RW10C3 hrs2.7 hrs16,574 lbGeorge M
2020-11-21AAL2065KDEN KPHX KDEN BRKEM LENNN TIKLR CIROS RKYMT SOLAR SMMUR DAAYE GUP KIRKM SLIDR TINIZ PAYSO EAGUL HOMRR BOHTX GEENO QUENY HINEY OBASE JAMIL RW081.9 hrs1.5 hrs10,514 lbGeorge M
2020-11-21AAL1148KORD KDEN KORD OLINN OREOS OBENE OGALE OBH BRWRY LAWGR PPINT TAPME GRRUB KIKME RW16L2.7 hrs2.4 hrs14,192 lbGeorge M
2020-11-16AAL2408KTPA KORD KTPA ENDED LACEN BRUTS JAMIZ JOHNN ATL KAILL GLAZR JEDER HELUB VOSTK ROYYZ HEVAN BONNT NYLEN VEECK BOONE HANNI CLUSO KAYTO PINKK MONKZ JORJO POSSM HAZIL RW28C2.7 hrs2.3 hrs14,856 lbGeorge M
2020-11-08AAL2419KCLT KTPA KTPA PIE KTPA1.6 hrs1.4 hrs9,115 lbGeorge M
2020-11-08AAL511KORD KCLT KCLT TOMME KCLT1.9 hrs1.6 hrs10,591 lbGeorge M
2020-11-07AAL615KPHX KORD KPHX WIVLA HIRVU ZIDOG OXYGN ZILUB FORPE LALUZ SJN ABQ FTI KENTO DRAWL GCK SLN AGENT KIDER IRK LOAMY KEOKK DRAMS RYELY BFORD BYLAW BENKY NEWRK AHSTN PETAH JORJO MONKZ TONIE HAZIL RW28C3.1 hrs2.8 hrs18,015 lbGeorge M
2020-11-07AAL407KDFW KPHX KPHX AVENT KPHX2.5 hrs2.2 hrs13,729 lbGeorge M
2020-11-07AAL5945KSDF KDFW KDFW YUPRU JASPA KDFW1.8 hrs1.6 hrs8,877 lbGeorge M
2020-11-07AAL4723KORD KSDF KSDF TORAC KSDF1.1 hrs0.8 hrs6,057 lbGeorge M
2020-10-17AAL1540KSEA KORD KSEA SEA ZADON ZELAK ZIRAN MLP GTF MLS SWTHN JELRO KEKPE UFFDA HSTIN ZZIPR WELCM TEEOO MITEE BHAWK STNLE CUUPP CHMPN CLSBY FYTTE MOTRR COGSS MADII SOOLU JORJO MONKZ TONIE HAZIL RW28C3.3 hrs3.1 hrs19,465 lbGeorge M
2020-09-26AAL1156KPHX KSEA KPHX GCN WINEN NEERO IMB KSEA2.9 hrs2.7 hrs16,471 lbAlex K.
2020-09-20AAL447KORD KPHX KORD PEKUE PIPPN ELYNA BACNN STJ SLN GCK CIM ZUN DOJOE SLIDR TINIZ PAYSO EAGUL HOMRR BOHTX GEENO QUENY HINEY OBASE JAMIL RW083.4 hrs3.2 hrs18,055 lbGeorge M
2020-09-15AAL1106KDFW KORD KDFW HAZKL RYNNE AKUNA TIKYS MLC SGF WELTS MCDEE CASHN VINCA MAROC TRICH TRTLL HIHRY RINNO JORJO MONKZ TONIE HAZIL RW28C2 hrs1.7 hrs10,671 lbGeorge M
2020-09-07AAL1114KSJC KDFW 3.3 hrs2.9 hrs17,662 lbGeorge M
2020-09-07AAL2722KPHX KSJC 1.7 hrs1.5 hrs9,793 lbGeorge M
2020-09-07AAL769KORD KPHX KORD PEKUE PIPPN ELYNA BACNN STJ SLN GCK CIM ZUN DOJOE SLIDR TINIZ PAYSO EAGUL HOMRR BOHTX GEENO QUENY HINEY OBASE JAMIL RW083.3 hrs3.1 hrs18,894 lbGeorge M
2020-08-09AAL4360KMSP KORD KMSP FGT FOBUG DOKTR CORDY RST ZZIPR WELCM TEEOO MITEE BHAWK STNLE CUUPP CHMPN CLSBY FYTTE MOTRR COGSS MADII SOOLU KURKK VULCN HIMGO EBENS RW27L1.2 hrs0.9 hrs6,965 lbGeorge M